Spirit — PH7170 — position and weather

sailwx.info

Track history (hours):
 
Tides and Currents Weather Stations Pressure Air Temp Water Temp Dewpoint Dewpoint Depression Visibility Wind Speed Wind Dir Waves Ship Positions

Spirit

Last reported at 2018-May-14 09:25 UTC. Time now 2018-Jun-22 17:07 UTC.
Position N 37°59' W 000°39'.
Warning: this ship's position is 39 days out of date.

Length 14 m.

Type: Sailing vessel. MMSI: 244020915.

Date/timePositionNaut miles runAvg speedWind from/ knotsBaromVisibWave heightAir tempDewpointWater temp
2018-May-14 09:25N 37°59' W 000°39'2 4.7
2018-May-14 09:00N 37°58' W 000°41'1 0.2
2018-May-14 05:56N 37°58' W 000°41'0 0.0
2018-May-14 05:26N 37°58' W 000°41'0 0.0
2018-May-14 04:56N 37°58' W 000°41'0 0.0
2018-May-14 04:26N 37°58' W 000°41'0 0.0
2018-May-14 03:50N 37°58' W 000°41'0 0.0
2018-May-14 03:26N 37°58' W 000°41'0 0.0
2018-May-14 02:56N 37°58' W 000°41'0 0.0
2018-May-14 02:26N 37°58' W 000°41'0 0.0
2018-May-14 01:56N 37°58' W 000°41'0 0.0
2018-May-14 01:26N 37°58' W 000°41'0 0.0
2018-May-14 00:56N 37°58' W 000°41'0 0.0
2018-May-14 00:26N 37°58' W 000°41'0 0.0
2018-May-13 23:56N 37°58' W 000°41'0 0.0
2018-May-13 23:26N 37°58' W 000°41'0 0.0
2018-May-13 22:50N 37°58' W 000°41'0 0.0
2018-May-13 22:26N 37°58' W 000°41'0 0.0
2018-May-13 20:44N 37°58' W 000°41'0 0.0
2018-May-13 20:20N 37°58' W 000°41'0 0.0
2018-May-13 19:50N 37°58' W 000°41'0 0.0
2018-May-13 19:26N 37°58' W 000°41'0 0.0
2018-May-13 18:56N 37°58' W 000°41'0 0.0
2018-May-13 18:20N 37°58' W 000°41'0 0.0
2018-May-13 17:50N 37°58' W 000°41'0 0.0
2018-May-13 15:44N 37°58' W 000°41'0 0.0
2018-May-13 14:44N 37°58' W 000°41'0 0.0
2018-May-13 13:32N 37°58' W 000°41'0 0.0
2018-May-13 13:08N 37°58' W 000°41'0 0.0
2018-May-13 12:38N 37°58' W 000°41'0 0.0
2018-May-13 12:26N 37°58' W 000°41'0 0.0
2018-May-13 11:32N 37°58' W 000°41'0 0.0
2018-May-13 11:20N 37°58' W 000°41'0 0.0
2018-May-13 10:56N 37°58' W 000°41'0 0.0
2018-May-13 10:26N 37°58' W 000°41'0 0.0
2018-May-13 09:56N 37°58' W 000°41'0 0.0
2018-May-13 09:26N 37°58' W 000°41'0 0.0
2018-May-13 08:56N 37°58' W 000°41'0 0.0
2018-May-13 06:27N 37°58' W 000°41'0 0.0
2018-May-13 05:57N 37°58' W 000°41'0 0.0
2018-May-13 05:27N 37°58' W 000°41'0 0.0
2018-May-13 04:57N 37°58' W 000°41'0 0.0
2018-May-13 04:21N 37°58' W 000°41'0 0.0
2018-May-13 03:57N 37°58' W 000°41'0 0.0
2018-May-13 03:27N 37°58' W 000°41'0 0.0
2018-May-13 02:57N 37°58' W 000°41'0 0.0
2018-May-13 02:21N 37°58' W 000°41'0 0.0
2018-May-13 01:57N 37°58' W 000°41'0 0.0
2018-May-13 01:27N 37°58' W 000°41'0 0.0
2018-May-13 00:51N 37°58' W 000°41'0 0.0
2018-May-12 16:57N 37°58' W 000°41'0 0.0
2018-May-12 16:27N 37°58' W 000°41'0 0.0
2018-May-12 15:57N 37°58' W 000°41'0 0.0
2018-May-12 15:27N 37°58' W 000°41'0 0.0
2018-May-12 14:57N 37°58' W 000°41'0 0.0
2018-May-12 14:27N 37°58' W 000°41'0 0.0
2018-May-12 13:57N 37°58' W 000°41'0 0.0
2018-May-12 13:27N 37°58' W 000°41'0 0.1
2018-May-12 12:42N 37°58' W 000°41'0 2.2
2018-May-12 12:30N 37°58' W 000°41'3 6.7
2018-May-12 12:00N 37°55' W 000°42'3 6.5
2018-May-12 11:30N 37°51' W 000°42'3 5.9
2018-May-12 11:00N 37°48' W 000°42'3 5.5
2018-May-12 10:30N 37°46' W 000°42'3 5.4
2018-May-12 10:00N 37°43' W 000°41'3 5.8
2018-May-12 09:30N 37°40' W 000°41'4 6.9
2018-May-12 08:58N 37°36' W 000°41'4 6.5
2018-May-12 08:21N 37°34' W 000°45'  
Track history (hours):
 
Tides and Currents Weather Stations Pressure Air Temp Water Temp Dewpoint Dewpoint Depression Visibility Wind Speed Wind Dir Waves Ship Positions

Spirit

Last reported at 2018-May-14 09:25 UTC. Time now 2018-Jun-22 17:07 UTC.
Position N 37°59' W 000°39'.
Warning: this ship's position is 39 days out of date.

Length 14 m.

Type: Sailing vessel. MMSI: 244020915.

Date/timePositionNaut miles runAvg speedWind from/ knotsBaromVisibWave heightAir tempDewpointWater temp
2018-May-14 09:25N 37°59' W 000°39'2 4.7
2018-May-14 09:00N 37°58' W 000°41'1 0.2
2018-May-14 05:56N 37°58' W 000°41'0 0.0
2018-May-14 05:26N 37°58' W 000°41'0 0.0
2018-May-14 04:56N 37°58' W 000°41'0 0.0
2018-May-14 04:26N 37°58' W 000°41'0 0.0
2018-May-14 03:50N 37°58' W 000°41'0 0.0
2018-May-14 03:26N 37°58' W 000°41'0 0.0
2018-May-14 02:56N 37°58' W 000°41'0 0.0
2018-May-14 02:26N 37°58' W 000°41'0 0.0
2018-May-14 01:56N 37°58' W 000°41'0 0.0
2018-May-14 01:26N 37°58' W 000°41'0 0.0
2018-May-14 00:56N 37°58' W 000°41'0 0.0
2018-May-14 00:26N 37°58' W 000°41'0 0.0
2018-May-13 23:56N 37°58' W 000°41'0 0.0
2018-May-13 23:26N 37°58' W 000°41'0 0.0
2018-May-13 22:50N 37°58' W 000°41'0 0.0
2018-May-13 22:26N 37°58' W 000°41'0 0.0
2018-May-13 20:44N 37°58' W 000°41'0 0.0
2018-May-13 20:20N 37°58' W 000°41'0 0.0
2018-May-13 19:50N 37°58' W 000°41'0 0.0
2018-May-13 19:26N 37°58' W 000°41'0 0.0
2018-May-13 18:56N 37°58' W 000°41'0 0.0
2018-May-13 18:20N 37°58' W 000°41'0 0.0
2018-May-13 17:50N 37°58' W 000°41'0 0.0
2018-May-13 15:44N 37°58' W 000°41'0 0.0
2018-May-13 14:44N 37°58' W 000°41'0 0.0
2018-May-13 13:32N 37°58' W 000°41'0 0.0
2018-May-13 13:08N 37°58' W 000°41'0 0.0
2018-May-13 12:38N 37°58' W 000°41'0 0.0
2018-May-13 12:26N 37°58' W 000°41'0 0.0
2018-May-13 11:32N 37°58' W 000°41'0 0.0
2018-May-13 11:20N 37°58' W 000°41'0 0.0
2018-May-13 10:56N 37°58' W 000°41'0 0.0
2018-May-13 10:26N 37°58' W 000°41'0 0.0
2018-May-13 09:56N 37°58' W 000°41'0 0.0
2018-May-13 09:26N 37°58' W 000°41'0 0.0
2018-May-13 08:56N 37°58' W 000°41'0 0.0
2018-May-13 06:27N 37°58' W 000°41'0 0.0
2018-May-13 05:57N 37°58' W 000°41'0 0.0
2018-May-13 05:27N 37°58' W 000°41'0 0.0
2018-May-13 04:57N 37°58' W 000°41'0 0.0
2018-May-13 04:21N 37°58' W 000°41'0 0.0
2018-May-13 03:57N 37°58' W 000°41'0 0.0
2018-May-13 03:27N 37°58' W 000°41'0 0.0
2018-May-13 02:57N 37°58' W 000°41'0 0.0
2018-May-13 02:21N 37°58' W 000°41'0 0.0
2018-May-13 01:57N 37°58' W 000°41'0 0.0
2018-May-13 01:27N 37°58' W 000°41'0 0.0
2018-May-13 00:51N 37°58' W 000°41'0 0.0
2018-May-12 16:57N 37°58' W 000°41'0 0.0
2018-May-12 16:27N 37°58' W 000°41'0 0.0
2018-May-12 15:57N 37°58' W 000°41'0 0.0
2018-May-12 15:27N 37°58' W 000°41'0 0.0
2018-May-12 14:57N 37°58' W 000°41'0 0.0
2018-May-12 14:27N 37°58' W 000°41'0 0.0
2018-May-12 13:57N 37°58' W 000°41'0 0.0
2018-May-12 13:27N 37°58' W 000°41'0 0.1
2018-May-12 12:42N 37°58' W 000°41'0 2.2
2018-May-12 12:30N 37°58' W 000°41'3 6.7
2018-May-12 12:00N 37°55' W 000°42'3 6.5
2018-May-12 11:30N 37°51' W 000°42'3 5.9
2018-May-12 11:00N 37°48' W 000°42'3 5.5
2018-May-12 10:30N 37°46' W 000°42'3 5.4
2018-May-12 10:00N 37°43' W 000°41'3 5.8
2018-May-12 09:30N 37°40' W 000°41'4 6.9
2018-May-12 08:58N 37°36' W 000°41'4 6.5
2018-May-12 08:21N 37°34' W 000°45'  

Dump ship's entire track history